sensor_id;sensor_type;location;lat;lon;timestamp;pressure;altitude;pressure_sealevel;temperature;humidity
50268;BME280;36153;50.960;6.220;2022-07-17T00:02:37;101660.38;;;18.36;46.64
50268;BME280;36153;50.960;6.220;2022-07-17T00:05:37;101663.94;;;18.26;46.75
50268;BME280;36153;50.960;6.220;2022-07-17T00:08:38;101661.28;;;18.18;46.63
50268;BME280;36153;50.960;6.220;2022-07-17T00:11:38;101661.31;;;18.04;47.44
50268;BME280;36153;50.960;6.220;2022-07-17T00:14:38;101662.19;;;18.00;47.52
50268;BME280;36153;50.960;6.220;2022-07-17T00:17:39;101660.41;;;17.87;48.17
50268;BME280;36153;50.960;6.220;2022-07-17T00:20:39;101658.66;;;17.70;47.91
50268;BME280;36153;50.960;6.220;2022-07-17T00:23:40;101659.50;;;17.77;47.79
50268;BME280;36153;50.960;6.220;2022-07-17T00:26:40;101656.88;;;17.89;47.29
50268;BME280;36153;50.960;6.220;2022-07-17T00:29:40;101662.16;;;17.86;47.19
50268;BME280;36153;50.960;6.220;2022-07-17T00:32:41;101652.50;;;17.70;47.75
50268;BME280;36153;50.960;6.220;2022-07-17T00:35:42;101647.25;;;17.67;48.07
50268;BME280;36153;50.960;6.220;2022-07-17T00:38:42;101649.84;;;17.59;48.29
50268;BME280;36153;50.960;6.220;2022-07-17T00:41:44;101642.84;;;17.44;48.49
50268;BME280;36153;50.960;6.220;2022-07-17T00:44:46;101643.72;;;17.45;48.40
50268;BME280;36153;50.960;6.220;2022-07-17T00:47:51;101650.69;;;17.26;49.01
50268;BME280;36153;50.960;6.220;2022-07-17T00:50:53;101649.81;;;17.22;49.03
50268;BME280;36153;50.960;6.220;2022-07-17T00:53:55;101647.22;;;17.36;48.36
50268;BME280;36153;50.960;6.220;2022-07-17T00:56:58;101651.59;;;17.25;49.10
50268;BME280;36153;50.960;6.220;2022-07-17T01:00:00;101643.66;;;17.17;49.25
50268;BME280;36153;50.960;6.220;2022-07-17T01:03:00;101651.50;;;17.00;49.97
50268;BME280;36153;50.960;6.220;2022-07-17T01:06:02;101651.50;;;17.03;49.80
50268;BME280;36153;50.960;6.220;2022-07-17T01:09:02;101648.88;;;17.03;49.61
50268;BME280;36153;50.960;6.220;2022-07-17T01:12:04;101646.16;;;16.87;49.79
50268;BME280;36153;50.960;6.220;2022-07-17T01:15:06;101645.25;;;16.79;50.25
50268;BME280;36153;50.960;6.220;2022-07-17T01:18:08;101641.72;;;16.74;50.41
50268;BME280;36153;50.960;6.220;2022-07-17T01:21:09;101643.47;;;16.72;50.27
50268;BME280;36153;50.960;6.220;2022-07-17T01:24:09;101646.13;;;16.77;50.44
50268;BME280;36153;50.960;6.220;2022-07-17T01:27:10;101637.34;;;16.75;50.58
50268;BME280;36153;50.960;6.220;2022-07-17T01:30:11;101632.97;;;16.70;50.72
50268;BME280;36153;50.960;6.220;2022-07-17T01:33:11;101630.31;;;16.67;50.91
50268;BME280;36153;50.960;6.220;2022-07-17T01:36:12;101627.63;;;16.57;50.79
50268;BME280;36153;50.960;6.220;2022-07-17T01:39:12;101629.34;;;16.51;51.33
50268;BME280;36153;50.960;6.220;2022-07-17T01:42:12;101640.78;;;16.53;51.04
50268;BME280;36153;50.960;6.220;2022-07-17T01:45:14;101627.59;;;16.50;51.58
50268;BME280;36153;50.960;6.220;2022-07-17T01:48:25;101632.84;;;16.50;51.43
50268;BME280;36153;50.960;6.220;2022-07-17T01:51:27;101642.50;;;16.48;51.35
50268;BME280;36153;50.960;6.220;2022-07-17T01:54:27;101638.06;;;16.41;51.37
50268;BME280;36153;50.960;6.220;2022-07-17T01:57:28;101631.00;;;16.32;51.54
50268;BME280;36153;50.960;6.220;2022-07-17T02:00:28;101627.53;;;16.38;51.56
50268;BME280;36153;50.960;6.220;2022-07-17T02:03:29;101625.72;;;16.25;51.57
50268;BME280;36153;50.960;6.220;2022-07-17T02:06:29;101631.00;;;16.31;51.61
50268;BME280;36153;50.960;6.220;2022-07-17T02:09:30;101623.09;;;16.23;51.47
50268;BME280;36153;50.960;6.220;2022-07-17T02:12:31;101622.19;;;16.23;52.07
50268;BME280;36153;50.960;6.220;2022-07-17T02:15:32;101612.53;;;16.17;52.41
50268;BME280;36153;50.960;6.220;2022-07-17T02:18:33;101623.94;;;16.20;51.89
50268;BME280;36153;50.960;6.220;2022-07-17T02:21:33;101618.63;;;16.14;52.25
50268;BME280;36153;50.960;6.220;2022-07-17T02:24:33;101616.97;;;16.27;51.70
50268;BME280;36153;50.960;6.220;2022-07-17T02:27:34;101614.28;;;16.16;51.78
50268;BME280;36153;50.960;6.220;2022-07-17T02:30:34;101609.88;;;16.11;52.35
50268;BME280;36153;50.960;6.220;2022-07-17T02:33:35;101611.66;;;16.21;51.96
50268;BME280;36153;50.960;6.220;2022-07-17T02:36:35;101612.56;;;16.21;52.39
50268;BME280;36153;50.960;6.220;2022-07-17T02:39:36;101619.47;;;16.10;52.09
50268;BME280;36153;50.960;6.220;2022-07-17T02:42:36;101624.72;;;16.10;52.30
50268;BME280;36153;50.960;6.220;2022-07-17T02:45:37;101630.84;;;16.06;52.67
50268;BME280;36153;50.960;6.220;2022-07-17T02:48:37;101642.16;;;15.96;52.81
50268;BME280;36153;50.960;6.220;2022-07-17T02:51:37;101638.59;;;15.91;52.87
50268;BME280;36153;50.960;6.220;2022-07-17T02:54:38;101635.19;;;16.01;52.49
50268;BME280;36153;50.960;6.220;2022-07-17T02:57:38;101625.53;;;15.94;52.18
50268;BME280;36153;50.960;6.220;2022-07-17T03:00:38;101635.97;;;15.87;53.07
50268;BME280;36153;50.960;6.220;2022-07-17T03:03:39;101630.69;;;15.86;53.29
50268;BME280;36153;50.960;6.220;2022-07-17T03:06:40;101639.50;;;15.94;53.14
50268;BME280;36153;50.960;6.220;2022-07-17T03:09:40;101644.78;;;15.99;53.13
50268;BME280;36153;50.960;6.220;2022-07-17T03:12:41;101639.41;;;15.80;52.80
50268;BME280;36153;50.960;6.220;2022-07-17T03:15:42;101644.59;;;15.77;52.94
50268;BME280;36153;50.960;6.220;2022-07-17T03:18:42;101642.84;;;15.76;52.88
50268;BME280;36153;50.960;6.220;2022-07-17T03:21:42;101649.03;;;15.80;52.78
50268;BME280;36153;50.960;6.220;2022-07-17T03:24:43;101645.41;;;15.68;52.78
50268;BME280;36153;50.960;6.220;2022-07-17T03:27:43;101642.75;;;15.67;53.71
50268;BME280;36153;50.960;6.220;2022-07-17T03:30:44;101641.97;;;15.77;53.03
50268;BME280;36153;50.960;6.220;2022-07-17T03:33:44;101641.84;;;15.62;52.88
50268;BME280;36153;50.960;6.220;2022-07-17T03:36:44;101653.22;;;15.61;53.67
50268;BME280;36153;50.960;6.220;2022-07-17T03:39:45;101649.84;;;15.77;52.96
50268;BME280;36153;50.960;6.220;2022-07-17T03:42:45;101640.09;;;15.64;53.21
50268;BME280;36153;50.960;6.220;2022-07-17T03:45:45;101637.47;;;15.61;52.91
50268;BME280;36153;50.960;6.220;2022-07-17T03:48:46;101632.09;;;15.48;53.53
50268;BME280;36153;50.960;6.220;2022-07-17T03:51:46;101619.06;;;15.55;53.31
50268;BME280;36153;50.960;6.220;2022-07-17T03:54:46;101613.69;;;15.44;53.65
50268;BME280;36153;50.960;6.220;2022-07-17T03:57:47;101618.03;;;15.42;53.97
50268;BME280;36153;50.960;6.220;2022-07-17T04:00:47;101627.69;;;15.43;54.16
50268;BME280;36153;50.960;6.220;2022-07-17T04:03:47;101618.94;;;15.41;54.24
50268;BME280;36153;50.960;6.220;2022-07-17T04:06:48;101625.16;;;15.53;53.79
50268;BME280;36153;50.960;6.220;2022-07-17T04:09:48;101632.22;;;15.61;54.02
50268;BME280;36153;50.960;6.220;2022-07-17T04:12:49;101651.72;;;15.91;53.34
50268;BME280;36153;50.960;6.220;2022-07-17T04:15:49;101648.34;;;16.07;52.71
50268;BME280;36153;50.960;6.220;2022-07-17T04:18:49;101648.38;;;16.10;52.94
50268;BME280;36153;50.960;6.220;2022-07-17T04:21:50;101655.38;;;16.08;53.12
50268;BME280;36153;50.960;6.220;2022-07-17T04:24:51;101658.94;;;16.16;52.92
50268;BME280;36153;50.960;6.220;2022-07-17T04:27:51;101650.91;;;15.96;53.14
50268;BME280;36153;50.960;6.220;2022-07-17T04:30:52;101648.41;;;16.13;52.82
50268;BME280;36153;50.960;6.220;2022-07-17T04:33:52;101650.22;;;16.22;52.45
50268;BME280;36153;50.960;6.220;2022-07-17T04:36:54;101651.06;;;16.16;52.93
50268;BME280;36153;50.960;6.220;2022-07-17T04:39:54;101647.66;;;16.34;52.52
50268;BME280;36153;50.960;6.220;2022-07-17T04:42:55;101646.81;;;16.40;52.16
50268;BME280;36153;50.960;6.220;2022-07-17T04:45:55;101652.06;;;16.35;52.57
50268;BME280;36153;50.960;6.220;2022-07-17T04:48:55;101661.75;;;16.44;52.53
50268;BME280;36153;50.960;6.220;2022-07-17T04:51:56;101670.56;;;16.54;51.81
50268;BME280;36153;50.960;6.220;2022-07-17T04:54:56;101662.72;;;16.63;52.08
50268;BME280;36153;50.960;6.220;2022-07-17T04:57:56;101668.91;;;16.79;51.54
50268;BME280;36153;50.960;6.220;2022-07-17T05:00:57;101662.88;;;16.97;51.19
50268;BME280;36153;50.960;6.220;2022-07-17T05:03:57;101669.91;;;16.97;51.60
50268;BME280;36153;50.960;6.220;2022-07-17T05:06:58;101667.28;;;17.03;51.37
50268;BME280;36153;50.960;6.220;2022-07-17T05:09:58;101656.81;;;17.09;51.52
50268;BME280;36153;50.960;6.220;2022-07-17T05:12:58;101665.59;;;17.31;51.33
50268;BME280;36153;50.960;6.220;2022-07-17T05:15:59;101663.03;;;17.57;50.59
50268;BME280;36153;50.960;6.220;2022-07-17T05:18:59;101664.78;;;17.72;50.56
50268;BME280;36153;50.960;6.220;2022-07-17T05:21:59;101667.44;;;17.83;50.21
50268;BME280;36153;50.960;6.220;2022-07-17T05:25:00;101672.72;;;18.10;49.59
50268;BME280;36153;50.960;6.220;2022-07-17T05:28:00;101679.72;;;18.24;49.26
50268;BME280;36153;50.960;6.220;2022-07-17T05:31:02;101691.16;;;18.36;49.34
50268;BME280;36153;50.960;6.220;2022-07-17T05:34:02;101700.81;;;18.24;49.88
50268;BME280;36153;50.960;6.220;2022-07-17T05:37:02;101681.47;;;18.38;49.93
50268;BME280;36153;50.960;6.220;2022-07-17T05:40:04;101682.28;;;18.60;49.54
50268;BME280;36153;50.960;6.220;2022-07-17T05:43:04;101686.63;;;18.70;49.33
50268;BME280;36153;50.960;6.220;2022-07-17T05:46:05;101695.41;;;18.82;49.55
50268;BME280;36153;50.960;6.220;2022-07-17T05:49:05;101691.09;;;18.64;50.94
50268;BME280;36153;50.960;6.220;2022-07-17T05:52:06;101690.16;;;18.74;50.26
50268;BME280;36153;50.960;6.220;2022-07-17T05:55:06;101691.91;;;18.87;50.03
50268;BME280;36153;50.960;6.220;2022-07-17T05:58:07;101696.22;;;19.07;49.58
50268;BME280;36153;50.960;6.220;2022-07-17T06:01:08;101695.34;;;19.02;49.87
50268;BME280;36153;50.960;6.220;2022-07-17T06:04:08;101692.69;;;19.11;50.01
50268;BME280;36153;50.960;6.220;2022-07-17T06:07:08;101684.56;;;19.43;48.22
50268;BME280;36153;50.960;6.220;2022-07-17T06:10:09;101688.06;;;19.44;48.31
50268;BME280;36153;50.960;6.220;2022-07-17T06:13:10;101687.78;;;19.90;48.25
50268;BME280;36153;50.960;6.220;2022-07-17T06:16:10;101683.09;;;20.20;46.50
50268;BME280;36153;50.960;6.220;2022-07-17T06:19:11;101685.66;;;20.31;46.33
50268;BME280;36153;50.960;6.220;2022-07-17T06:22:11;101681.94;;;20.49;45.47
50268;BME280;36153;50.960;6.220;2022-07-17T06:25:12;101678.97;;;20.80;45.87
50268;BME280;36153;50.960;6.220;2022-07-17T06:28:12;101675.16;;;21.01;45.13
50268;BME280;36153;50.960;6.220;2022-07-17T06:31:13;101674.38;;;20.96;44.66
50268;BME280;36153;50.960;6.220;2022-07-17T06:34:13;101678.69;;;21.02;45.71
50268;BME280;36153;50.960;6.220;2022-07-17T06:37:13;101672.25;;;21.21;45.20
50268;BME280;36153;50.960;6.220;2022-07-17T06:40:14;101671.31;;;21.22;45.44
50268;BME280;36153;50.960;6.220;2022-07-17T06:43:14;101676.25;;;21.48;44.90
50268;BME280;36153;50.960;6.220;2022-07-17T06:46:14;101679.88;;;21.43;43.90
50268;BME280;36153;50.960;6.220;2022-07-17T06:49:15;101680.31;;;21.74;43.42
50268;BME280;36153;50.960;6.220;2022-07-17T06:52:15;101688.88;;;21.90;44.05
50268;BME280;36153;50.960;6.220;2022-07-17T06:55:16;101682.78;;;21.85;42.53
50268;BME280;36153;50.960;6.220;2022-07-17T06:58:16;101684.97;;;22.13;43.58
50268;BME280;36153;50.960;6.220;2022-07-17T07:01:17;101684.69;;;22.28;43.20
50268;BME280;36153;50.960;6.220;2022-07-17T07:04:17;101678.38;;;22.36;41.25
50268;BME280;36153;50.960;6.220;2022-07-17T07:07:17;101672.50;;;22.65;42.90
50268;BME280;36153;50.960;6.220;2022-07-17T07:10:18;101669.56;;;22.79;42.00
50268;BME280;36153;50.960;6.220;2022-07-17T07:13:18;101661.91;;;23.06;40.96
50268;BME280;36153;50.960;6.220;2022-07-17T07:16:19;101651.16;;;23.13;41.00
50268;BME280;36153;50.960;6.220;2022-07-17T07:19:21;101654.09;;;23.39;39.79
50268;BME280;36153;50.960;6.220;2022-07-17T07:22:21;101646.44;;;23.26;39.21
50268;BME280;36153;50.960;6.220;2022-07-17T07:25:22;101659.97;;;23.53;39.45
50268;BME280;36153;50.960;6.220;2022-07-17T07:28:22;101668.13;;;23.45;40.04
50268;BME280;36153;50.960;6.220;2022-07-17T07:31:23;101665.06;;;23.62;39.95
50268;BME280;36153;50.960;6.220;2022-07-17T07:34:23;101661.47;;;24.01;38.31
50268;BME280;36153;50.960;6.220;2022-07-17T07:37:23;101670.13;;;24.08;37.51
50268;BME280;36153;50.960;6.220;2022-07-17T07:40:24;101663.13;;;23.69;38.00
50268;BME280;36153;50.960;6.220;2022-07-17T07:43:24;101675.50;;;24.06;38.10
50268;BME280;36153;50.960;6.220;2022-07-17T07:46:25;101672.25;;;24.62;37.08
50268;BME280;36153;50.960;6.220;2022-07-17T07:49:25;101679.13;;;24.69;37.24
50268;BME280;36153;50.960;6.220;2022-07-17T07:52:27;101681.03;;;24.96;36.39
50268;BME280;36153;50.960;6.220;2022-07-17T07:55:27;101672.94;;;24.99;36.38
50268;BME280;36153;50.960;6.220;2022-07-17T07:58:27;101683.44;;;25.03;34.87
50268;BME280;36153;50.960;6.220;2022-07-17T08:01:28;101694.56;;;25.18;35.16
50268;BME280;36153;50.960;6.220;2022-07-17T08:04:29;101678.53;;;24.90;35.05
50268;BME280;36153;50.960;6.220;2022-07-17T08:07:31;101688.19;;;25.24;35.73
50268;BME280;36153;50.960;6.220;2022-07-17T08:10:32;101687.50;;;25.73;36.80
50268;BME280;36153;50.960;6.220;2022-07-17T08:13:33;101699.38;;;25.63;35.06
50268;BME280;36153;50.960;6.220;2022-07-17T08:16:34;101703.28;;;25.53;35.21
50268;BME280;36153;50.960;6.220;2022-07-17T08:19:35;101706.16;;;25.73;34.69
50268;BME280;36153;50.960;6.220;2022-07-17T08:22:35;101697.59;;;25.90;34.89
50268;BME280;36153;50.960;6.220;2022-07-17T08:25:36;101703.00;;;25.89;33.66
50268;BME280;36153;50.960;6.220;2022-07-17T08:28:36;101705.44;;;25.95;33.08
50268;BME280;36153;50.960;6.220;2022-07-17T08:31:37;101712.41;;;25.99;33.70
50268;BME280;36153;50.960;6.220;2022-07-17T08:34:37;101722.78;;;26.35;34.88
50268;BME280;36153;50.960;6.220;2022-07-17T08:37:45;101724.09;;;26.49;32.49
50268;BME280;36153;50.960;6.220;2022-07-17T08:40:46;101711.66;;;26.48;30.77
50268;BME280;36153;50.960;6.220;2022-07-17T08:43:49;101707.81;;;27.04;30.44
50268;BME280;36153;50.960;6.220;2022-07-17T08:46:52;101698.91;;;27.27;28.27
50268;BME280;36153;50.960;6.220;2022-07-17T08:49:54;101707.56;;;27.34;29.35
50268;BME280;36153;50.960;6.220;2022-07-17T08:52:55;101713.56;;;26.93;28.90
50268;BME280;36153;50.960;6.220;2022-07-17T08:55:55;101703.19;;;26.60;29.02
50268;BME280;36153;50.960;6.220;2022-07-17T08:58:56;101704.03;;;27.09;28.86
50268;BME280;36153;50.960;6.220;2022-07-17T09:01:58;101693.25;;;27.13;28.90
50268;BME280;36153;50.960;6.220;2022-07-17T09:04:59;101699.63;;;27.54;28.64
50268;BME280;36153;50.960;6.220;2022-07-17T09:08:00;101693.41;;;28.19;29.51
50268;BME280;36153;50.960;6.220;2022-07-17T09:11:05;101681.06;;;28.35;29.08
50268;BME280;36153;50.960;6.220;2022-07-17T09:14:05;101686.44;;;28.15;27.49
50268;BME280;36153;50.960;6.220;2022-07-17T09:17:08;101686.00;;;28.44;28.52
50268;BME280;36153;50.960;6.220;2022-07-17T09:20:13;101679.56;;;28.69;29.31
50268;BME280;36153;50.960;6.220;2022-07-17T09:23:14;101672.16;;;29.12;28.51
50268;BME280;36153;50.960;6.220;2022-07-17T09:26:15;101674.00;;;28.53;27.40
50268;BME280;36153;50.960;6.220;2022-07-17T09:29:15;101678.84;;;29.04;27.83
50268;BME280;36153;50.960;6.220;2022-07-17T09:32:21;101675.34;;;29.21;26.74
50268;BME280;36153;50.960;6.220;2022-07-17T09:35:23;101688.09;;;29.54;27.48
50268;BME280;36153;50.960;6.220;2022-07-17T09:38:44;101682.34;;;29.25;26.09
50268;BME280;36153;50.960;6.220;2022-07-17T09:41:45;101679.63;;;29.61;27.36
50268;BME280;36153;50.960;6.220;2022-07-17T09:44:54;101672.91;;;29.16;26.48
50268;BME280;36153;50.960;6.220;2022-07-17T09:47:56;101681.28;;;29.47;26.80
50268;BME280;36153;50.960;6.220;2022-07-17T09:50:56;101682.56;;;29.57;25.42
50268;BME280;36153;50.960;6.220;2022-07-17T09:53:59;101682.41;;;29.60;25.02
50268;BME280;36153;50.960;6.220;2022-07-17T09:57:01;101681.13;;;29.50;25.93
50268;BME280;36153;50.960;6.220;2022-07-17T10:00:05;101685.09;;;29.60;25.08
50268;BME280;36153;50.960;6.220;2022-07-17T10:03:07;101684.44;;;29.55;24.50
50268;BME280;36153;50.960;6.220;2022-07-17T10:06:10;101689.75;;;29.74;25.42
50268;BME280;36153;50.960;6.220;2022-07-17T10:09:10;101693.34;;;30.44;25.30
50268;BME280;36153;50.960;6.220;2022-07-17T10:12:11;101692.13;;;30.50;23.88
50268;BME280;36153;50.960;6.220;2022-07-17T10:15:14;101694.13;;;30.11;25.06
50268;BME280;36153;50.960;6.220;2022-07-17T10:18:15;101695.00;;;30.47;24.08
50268;BME280;36153;50.960;6.220;2022-07-17T10:21:18;101687.81;;;30.30;24.14
50268;BME280;36153;50.960;6.220;2022-07-17T10:24:19;101696.72;;;30.30;23.66
50268;BME280;36153;50.960;6.220;2022-07-17T10:27:22;101697.84;;;30.77;24.87
50268;BME280;36153;50.960;6.220;2022-07-17T10:30:25;101703.13;;;30.28;23.66
50268;BME280;36153;50.960;6.220;2022-07-17T10:33:26;101691.69;;;30.07;24.55
50268;BME280;36153;50.960;6.220;2022-07-17T10:39:34;101695.69;;;30.51;22.05
50268;BME280;36153;50.960;6.220;2022-07-17T10:42:41;101692.94;;;30.17;22.92
50268;BME280;36153;50.960;6.220;2022-07-17T10:45:44;101688.06;;;30.59;22.63
50268;BME280;36153;50.960;6.220;2022-07-17T10:48:48;101695.44;;;30.89;22.38
50268;BME280;36153;50.960;6.220;2022-07-17T10:51:49;101685.00;;;30.83;22.50
50268;BME280;36153;50.960;6.220;2022-07-17T10:54:51;101690.06;;;30.89;21.98
50268;BME280;36153;50.960;6.220;2022-07-17T10:57:52;101686.25;;;31.41;21.69
50268;BME280;36153;50.960;6.220;2022-07-17T11:04:00;101695.31;;;31.70;21.79
50268;BME280;36153;50.960;6.220;2022-07-17T11:07:06;101684.34;;;32.20;21.02
50268;BME280;36153;50.960;6.220;2022-07-17T11:10:06;101687.63;;;31.64;21.20
50268;BME280;36153;50.960;6.220;2022-07-17T11:13:15;101685.72;;;32.11;20.45
50268;BME280;36153;50.960;6.220;2022-07-17T11:16:29;101687.56;;;31.02;20.48
50268;BME280;36153;50.960;6.220;2022-07-17T11:22:33;101678.56;;;31.95;20.20
50268;BME280;36153;50.960;6.220;2022-07-17T11:25:33;101671.63;;;32.22;20.22
50268;BME280;36153;50.960;6.220;2022-07-17T11:28:43;101677.50;;;32.43;19.06
50268;BME280;36153;50.960;6.220;2022-07-17T11:31:44;101674.88;;;32.12;19.52
50268;BME280;36153;50.960;6.220;2022-07-17T11:34:45;101667.16;;;32.06;20.06
50268;BME280;36153;50.960;6.220;2022-07-17T11:37:48;101670.22;;;32.30;19.79
50268;BME280;36153;50.960;6.220;2022-07-17T11:40:49;101663.97;;;31.99;20.32
50268;BME280;36153;50.960;6.220;2022-07-17T11:43:49;101662.41;;;32.83;19.74
50268;BME280;36153;50.960;6.220;2022-07-17T11:46:51;101656.81;;;32.58;19.85
50268;BME280;36153;50.960;6.220;2022-07-17T11:50:03;101656.59;;;32.90;20.33
50268;BME280;36153;50.960;6.220;2022-07-17T11:53:05;101653.91;;;33.31;20.99
50268;BME280;36153;50.960;6.220;2022-07-17T11:56:06;101659.69;;;33.52;18.87
50268;BME280;36153;50.960;6.220;2022-07-17T11:59:08;101653.84;;;33.18;18.92
50268;BME280;36153;50.960;6.220;2022-07-17T12:02:13;101659.84;;;33.09;19.12
50268;BME280;36153;50.960;6.220;2022-07-17T12:05:25;101646.31;;;33.24;20.76
50268;BME280;36153;50.960;6.220;2022-07-17T12:08:27;101647.16;;;33.92;18.48
50268;BME280;36153;50.960;6.220;2022-07-17T12:11:28;101639.59;;;33.84;19.56
50268;BME280;36153;50.960;6.220;2022-07-17T12:14:28;101638.97;;;33.53;18.31
50268;BME280;36153;50.960;6.220;2022-07-17T12:17:40;101649.97;;;33.77;19.03
50268;BME280;36153;50.960;6.220;2022-07-17T12:20:45;101634.50;;;33.79;17.61
50268;BME280;36153;50.960;6.220;2022-07-17T12:23:56;101641.91;;;34.29;16.59
50268;BME280;36153;50.960;6.220;2022-07-17T12:27:00;101634.06;;;33.73;19.22
50268;BME280;36153;50.960;6.220;2022-07-17T12:30:01;101641.00;;;34.02;19.07
50268;BME280;36153;50.960;6.220;2022-07-17T12:33:01;101628.03;;;34.20;19.94
50268;BME280;36153;50.960;6.220;2022-07-17T12:36:01;101622.81;;;33.66;19.72
50268;BME280;36153;50.960;6.220;2022-07-17T12:39:02;101624.34;;;34.47;19.63
50268;BME280;36153;50.960;6.220;2022-07-17T12:42:03;101623.50;;;34.08;19.62
50268;BME280;36153;50.960;6.220;2022-07-17T12:45:04;101618.53;;;34.02;19.56
50268;BME280;36153;50.960;6.220;2022-07-17T12:48:05;101619.41;;;34.02;20.00
50268;BME280;36153;50.960;6.220;2022-07-17T12:51:07;101621.88;;;33.93;20.71
50268;BME280;36153;50.960;6.220;2022-07-17T12:54:07;101622.06;;;34.54;18.81
50268;BME280;36153;50.960;6.220;2022-07-17T12:57:08;101616.13;;;34.62;20.01
50268;BME280;36153;50.960;6.220;2022-07-17T13:00:09;101612.81;;;34.45;19.34
50268;BME280;36153;50.960;6.220;2022-07-17T13:03:10;101596.16;;;34.26;19.85
50268;BME280;36153;50.960;6.220;2022-07-17T13:06:11;101600.34;;;34.93;19.72
50268;BME280;36153;50.960;6.220;2022-07-17T13:09:11;101605.00;;;34.91;18.16
50268;BME280;36153;50.960;6.220;2022-07-17T13:12:13;101587.53;;;35.08;19.28
50268;BME280;36153;50.960;6.220;2022-07-17T13:15:13;101594.81;;;34.94;19.11
50268;BME280;36153;50.960;6.220;2022-07-17T13:18:13;101592.56;;;35.12;17.95
50268;BME280;36153;50.960;6.220;2022-07-17T13:21:17;101594.31;;;35.13;19.24
50268;BME280;36153;50.960;6.220;2022-07-17T13:24:17;101588.91;;;35.13;19.89
50268;BME280;36153;50.960;6.220;2022-07-17T13:27:18;101591.56;;;34.65;18.75
50268;BME280;36153;50.960;6.220;2022-07-17T13:30:19;101597.06;;;35.25;19.92
50268;BME280;36153;50.960;6.220;2022-07-17T13:33:19;101595.41;;;35.35;19.39
50268;BME280;36153;50.960;6.220;2022-07-17T13:36:20;101594.31;;;35.37;20.06
50268;BME280;36153;50.960;6.220;2022-07-17T13:39:20;101588.31;;;34.97;19.61
50268;BME280;36153;50.960;6.220;2022-07-17T13:42:20;101585.56;;;35.34;20.07
50268;BME280;36153;50.960;6.220;2022-07-17T13:45:21;101581.34;;;35.30;18.56
50268;BME280;36153;50.960;6.220;2022-07-17T13:48:22;101580.66;;;35.50;19.19
50268;BME280;36153;50.960;6.220;2022-07-17T13:51:23;101576.84;;;36.00;18.74
50268;BME280;36153;50.960;6.220;2022-07-17T13:54:23;101574.16;;;35.53;19.56
50268;BME280;36153;50.960;6.220;2022-07-17T13:57:24;101565.31;;;35.27;19.06
50268;BME280;36153;50.960;6.220;2022-07-17T14:00:25;101577.69;;;35.42;18.63
50268;BME280;36153;50.960;6.220;2022-07-17T14:03:28;101572.78;;;35.83;19.62
50268;BME280;36153;50.960;6.220;2022-07-17T14:06:28;101570.94;;;36.06;18.33
50268;BME280;36153;50.960;6.220;2022-07-17T14:09:28;101566.19;;;35.74;17.83
50268;BME280;36153;50.960;6.220;2022-07-17T14:12:29;101567.00;;;35.99;18.48
50268;BME280;36153;50.960;6.220;2022-07-17T14:15:30;101569.28;;;35.81;18.38
50268;BME280;36153;50.960;6.220;2022-07-17T14:18:31;101566.84;;;36.00;18.91
50268;BME280;36153;50.960;6.220;2022-07-17T14:21:34;101555.78;;;36.03;18.38
50268;BME280;36153;50.960;6.220;2022-07-17T14:24:35;101556.69;;;35.57;18.79
50268;BME280;36153;50.960;6.220;2022-07-17T14:27:36;101555.34;;;35.74;18.35
50268;BME280;36153;50.960;6.220;2022-07-17T14:30:37;101556.38;;;36.52;18.46
50268;BME280;36153;50.960;6.220;2022-07-17T14:33:37;101551.69;;;36.54;17.56
50268;BME280;36153;50.960;6.220;2022-07-17T14:36:38;101541.00;;;36.30;17.75
50268;BME280;36153;50.960;6.220;2022-07-17T14:39:38;101533.75;;;36.31;16.76
50268;BME280;36153;50.960;6.220;2022-07-17T14:42:39;101529.66;;;36.36;16.32
50268;BME280;36153;50.960;6.220;2022-07-17T14:45:39;101529.66;;;36.14;16.98
50268;BME280;36153;50.960;6.220;2022-07-17T14:48:40;101531.75;;;36.21;17.12
50268;BME280;36153;50.960;6.220;2022-07-17T14:51:40;101528.69;;;36.81;16.16
50268;BME280;36153;50.960;6.220;2022-07-17T14:54:40;101520.72;;;37.01;17.32
50268;BME280;36153;50.960;6.220;2022-07-17T14:57:41;101508.38;;;37.08;16.08
50268;BME280;36153;50.960;6.220;2022-07-17T15:00:41;101502.81;;;37.10;14.89
50268;BME280;36153;50.960;6.220;2022-07-17T15:03:41;101495.97;;;36.94;15.63
50268;BME280;36153;50.960;6.220;2022-07-17T15:06:42;101489.53;;;36.95;16.42
50268;BME280;36153;50.960;6.220;2022-07-17T15:09:42;101489.78;;;36.60;15.52
50268;BME280;36153;50.960;6.220;2022-07-17T15:12:43;101501.31;;;36.18;17.86
50268;BME280;36153;50.960;6.220;2022-07-17T15:15:43;101493.69;;;36.34;16.98
50268;BME280;36153;50.960;6.220;2022-07-17T15:18:44;101491.88;;;36.56;17.05
50268;BME280;36153;50.960;6.220;2022-07-17T15:21:46;101498.53;;;35.85;16.41
50268;BME280;36153;50.960;6.220;2022-07-17T15:24:46;101496.53;;;35.29;16.39
50268;BME280;36153;50.960;6.220;2022-07-17T15:27:47;101496.41;;;35.19;16.61
50268;BME280;36153;50.960;6.220;2022-07-17T15:30:47;101492.72;;;36.13;16.51
50268;BME280;36153;50.960;6.220;2022-07-17T15:33:47;101500.16;;;36.54;16.11
50268;BME280;36153;50.960;6.220;2022-07-17T15:36:48;101493.50;;;36.91;15.78
50268;BME280;36153;50.960;6.220;2022-07-17T15:39:48;101496.88;;;36.28;14.91
50268;BME280;36153;50.960;6.220;2022-07-17T15:42:49;101492.78;;;36.56;15.66
50268;BME280;36153;50.960;6.220;2022-07-17T15:45:50;101479.66;;;36.62;15.25
50268;BME280;36153;50.960;6.220;2022-07-17T15:48:51;101484.31;;;36.71;14.74
50268;BME280;36153;50.960;6.220;2022-07-17T15:51:52;101486.63;;;36.43;14.61
50268;BME280;36153;50.960;6.220;2022-07-17T15:54:52;101484.44;;;36.81;15.64
50268;BME280;36153;50.960;6.220;2022-07-17T15:57:52;101486.06;;;36.72;15.31